createdAt,value
2019-03-19T00:00:02.126Z,2.97
2019-03-19T00:05:25.151Z,2.79
2019-03-19T00:10:29.306Z,2.74
2019-03-19T00:15:33.803Z,2.71
2019-03-19T00:20:40.289Z,2.58
2019-03-19T00:25:45.180Z,2.58
2019-03-19T00:30:49.264Z,2.71
2019-03-19T00:35:53.371Z,2.53
2019-03-19T00:41:16.452Z,2.60
2019-03-19T00:46:20.473Z,2.74
2019-03-19T00:51:24.525Z,2.50
2019-03-19T00:56:28.965Z,2.39
2019-03-19T01:01:33.046Z,2.31
2019-03-19T01:06:37.140Z,2.50
2019-03-19T01:11:41.193Z,2.54
2019-03-19T01:17:04.350Z,2.71
2019-03-19T01:22:08.389Z,2.86
2019-03-19T01:27:12.461Z,3.05
2019-03-19T01:32:16.538Z,3.23
2019-03-19T01:37:39.639Z,3.31
2019-03-19T01:42:43.743Z,3.32
2019-03-19T01:47:47.803Z,3.37
2019-03-19T01:52:51.856Z,3.34
2019-03-19T01:57:56.294Z,3.29
2019-03-19T02:03:01.049Z,3.36
2019-03-19T02:08:05.173Z,3.34
2019-03-19T02:13:09.209Z,3.35
2019-03-19T02:18:13.295Z,3.29
2019-03-19T02:23:17.687Z,3.27
2019-03-19T02:28:21.745Z,3.24
2019-03-19T02:33:26.154Z,3.17
2019-03-19T02:38:30.227Z,3.10
2019-03-19T02:43:34.309Z,3.18
2019-03-19T02:48:38.323Z,3.16
2019-03-19T02:53:42.403Z,3.19
2019-03-19T02:58:46.565Z,3.15
2019-03-19T03:03:50.601Z,3.05
2019-03-19T03:08:55.007Z,2.85
2019-03-19T03:13:59.083Z,2.66
2019-03-19T03:24:18.191Z,2.37
2019-03-19T03:29:22.343Z,2.28
2019-03-19T03:34:27.142Z,2.33
2019-03-19T03:39:31.280Z,2.28
2019-03-19T03:44:35.447Z,2.26
2019-03-19T03:49:39.432Z,2.21
2019-03-19T03:54:43.985Z,2.21
2019-03-19T03:59:48.065Z,2.29
2019-03-19T04:04:52.130Z,2.33
2019-03-19T04:09:56.178Z,2.57
2019-03-19T04:15:00.438Z,2.74
2019-03-19T04:20:05.288Z,2.79
2019-03-19T04:30:45.724Z,2.71
2019-03-19T04:35:49.808Z,2.42
2019-03-19T04:40:53.901Z,2.25
2019-03-19T04:45:57.976Z,2.05
2019-03-19T04:51:02.019Z,2.09
2019-03-19T04:56:06.098Z,2.29
2019-03-19T05:01:10.130Z,2.42
2019-03-19T05:06:14.186Z,2.50
2019-03-19T05:11:18.242Z,2.65
2019-03-19T05:16:22.299Z,2.62
2019-03-19T05:21:26.388Z,2.72
2019-03-19T05:26:30.438Z,2.82
2019-03-19T05:31:34.786Z,2.89
2019-03-19T05:36:38.789Z,2.83
2019-03-19T05:41:43.676Z,2.86
2019-03-19T05:46:48.066Z,2.94
2019-03-19T05:51:52.206Z,2.95
2019-03-19T05:56:56.252Z,2.99
2019-03-19T06:02:00.285Z,3.11
2019-03-19T06:07:04.526Z,3.17
2019-03-19T06:12:08.617Z,3.18
2019-03-19T06:17:12.627Z,3.30
2019-03-19T06:22:16.797Z,3.39
2019-03-19T06:27:39.895Z,3.44
2019-03-19T06:32:43.983Z,3.46
2019-03-19T06:37:47.991Z,3.54
2019-03-19T06:42:51.999Z,3.60
2019-03-19T06:47:56.597Z,3.62
2019-03-19T06:53:00.727Z,3.63
2019-03-19T06:58:10.842Z,3.63
2019-03-19T07:03:20.942Z,3.81
2019-03-19T07:08:25.009Z,3.83
2019-03-19T07:13:29.007Z,4.09
2019-03-19T07:18:34.013Z,4.08
2019-03-19T07:23:38.158Z,4.22
2019-03-19T07:28:42.217Z,4.36
2019-03-19T07:33:46.949Z,4.69
2019-03-19T07:38:51.082Z,4.73
2019-03-19T07:43:55.914Z,4.93
2019-03-19T07:49:00.103Z,4.77
2019-03-19T07:54:04.618Z,4.95
2019-03-19T07:59:08.716Z,4.87
2019-03-19T08:04:12.891Z,5.07
2019-03-19T08:09:17.052Z,5.67
2019-03-19T08:14:21.144Z,6.09
2019-03-19T08:19:25.245Z,6.58
2019-03-19T08:24:29.295Z,6.15
2019-03-19T08:29:34.744Z,6.55
2019-03-19T08:34:38.949Z,6.63
2019-03-19T08:39:43.071Z,6.55
2019-03-19T08:44:47.147Z,6.48
2019-03-19T08:49:51.271Z,7.15
2019-03-19T08:55:00.827Z,7.65
2019-03-19T09:00:06.962Z,8.17
2019-03-19T09:05:11.017Z,8.62
2019-03-19T09:10:15.688Z,8.50
2019-03-19T09:15:19.825Z,8.10
2019-03-19T09:20:23.963Z,7.56
2019-03-19T09:25:28.120Z,7.66
2019-03-19T09:30:32.284Z,8.06
2019-03-19T09:35:36.355Z,8.34
2019-03-19T09:40:40.403Z,8.03
2019-03-19T09:45:44.499Z,8.47
2019-03-19T09:50:48.540Z,7.94
2019-03-19T09:55:53.518Z,8.59
2019-03-19T10:00:57.878Z,10.53
2019-03-19T10:06:13.694Z,11.30
2019-03-19T10:11:08.738Z,10.03
2019-03-19T10:16:12.789Z,8.70
2019-03-19T10:21:16.854Z,8.67
2019-03-19T10:26:20.930Z,8.16
2019-03-19T10:31:25.048Z,9.10
2019-03-19T10:36:29.138Z,11.65
2019-03-19T10:41:33.295Z,13.85
2019-03-19T10:46:37.361Z,12.50
2019-03-19T10:51:41.444Z,10.72
2019-03-19T10:56:45.766Z,9.52
2019-03-19T11:01:51.478Z,10.09
2019-03-19T11:06:55.741Z,8.73
2019-03-19T11:11:59.757Z,7.86
2019-03-19T11:17:04.180Z,9.54
2019-03-19T11:22:08.285Z,9.54
2019-03-19T11:27:12.907Z,10.88
2019-03-19T11:32:18.318Z,11.55
2019-03-19T11:37:22.379Z,11.32
2019-03-19T11:42:26.447Z,12.27
2019-03-19T11:47:30.507Z,12.48
2019-03-19T11:52:35.262Z,10.32
2019-03-19T11:57:39.780Z,11.38
2019-03-19T12:02:46.226Z,11.82
2019-03-19T12:07:50.897Z,9.94
2019-03-19T12:12:54.973Z,9.05
2019-03-19T12:17:59.292Z,9.10
2019-03-19T12:23:03.932Z,8.39
2019-03-19T12:28:07.973Z,8.01
2019-03-19T12:33:12.143Z,8.03
2019-03-19T12:38:16.189Z,8.59
2019-03-19T12:43:21.223Z,8.59
2019-03-19T12:48:25.711Z,8.34
2019-03-19T12:53:29.751Z,8.66
2019-03-19T12:58:33.959Z,8.82
2019-03-19T13:03:38.050Z,9.02
2019-03-19T13:08:42.922Z,9.03
2019-03-19T13:13:47.347Z,9.42
2019-03-19T13:18:53.827Z,8.93
2019-03-19T13:23:58.654Z,9.35
2019-03-19T13:29:03.080Z,8.69
2019-03-19T13:34:07.284Z,8.50
2019-03-19T13:39:12.463Z,8.53
2019-03-19T13:44:16.929Z,8.42
2019-03-19T13:49:21.309Z,8.96
2019-03-19T13:54:44.411Z,9.05
2019-03-19T14:00:09.364Z,9.29
2019-03-19T14:05:14.839Z,9.56
2019-03-19T14:16:14.937Z,9.10
2019-03-19T14:21:39.218Z,8.75
2019-03-19T14:43:39.469Z,10.19
2019-03-19T14:48:45.216Z,9.76
2019-03-19T14:53:51.296Z,9.12
2019-03-19T14:58:55.577Z,9.21
2019-03-19T15:03:59.924Z,8.99
2019-03-19T15:09:05.877Z,10.06
2019-03-19T15:14:13.695Z,10.49
2019-03-19T15:19:18.401Z,10.68
2019-03-19T15:24:22.612Z,10.16
2019-03-19T15:29:26.673Z,8.63
2019-03-19T15:34:31.073Z,8.63
2019-03-19T15:39:35.161Z,8.30
2019-03-19T15:44:39.370Z,8.31
2019-03-19T15:49:43.430Z,7.95
2019-03-19T15:54:47.458Z,7.96
2019-03-19T15:59:51.608Z,7.84
2019-03-19T16:04:55.678Z,7.99
2019-03-19T16:10:00.040Z,7.92
2019-03-19T16:15:04.822Z,7.97
2019-03-19T16:20:11.322Z,7.91
2019-03-19T16:25:15.506Z,8.00
2019-03-19T16:30:19.793Z,7.95
2019-03-19T16:35:23.964Z,7.87
2019-03-19T16:40:28.368Z,7.68
2019-03-19T16:45:32.470Z,7.42
2019-03-19T16:50:36.484Z,7.13
2019-03-19T16:55:40.633Z,6.76
2019-03-19T17:00:45.034Z,6.41
2019-03-19T17:05:49.113Z,6.11
2019-03-19T17:10:53.212Z,6.07
2019-03-19T17:15:57.321Z,6.14
2019-03-19T17:21:01.368Z,6.13
2019-03-19T17:26:05.480Z,5.93
2019-03-19T17:31:09.884Z,5.60
2019-03-19T17:36:14.036Z,5.23
2019-03-19T17:41:18.102Z,4.84
2019-03-19T17:46:22.231Z,4.55
2019-03-19T17:51:26.296Z,4.29
2019-03-19T17:56:30.305Z,3.94
2019-03-19T18:01:35.928Z,3.73
2019-03-19T18:06:40.251Z,3.50
2019-03-19T18:11:44.289Z,3.36
2019-03-19T18:16:48.280Z,3.06
2019-03-19T18:21:52.455Z,2.96
2019-03-19T18:26:56.645Z,2.87
2019-03-19T18:32:00.978Z,2.49
2019-03-19T18:37:05.116Z,2.33
2019-03-19T18:42:09.177Z,2.12
2019-03-19T18:47:13.774Z,1.89
2019-03-19T18:52:17.873Z,1.76
2019-03-19T18:57:22.613Z,1.58
2019-03-19T19:02:27.586Z,1.44
2019-03-19T19:07:32.230Z,1.37
2019-03-19T19:12:36.783Z,1.35
2019-03-19T19:17:44.479Z,1.40
2019-03-19T19:22:50.651Z,1.21
2019-03-19T19:27:55.083Z,1.08
2019-03-19T19:33:02.171Z,0.97
2019-03-19T19:38:06.244Z,0.94
2019-03-19T19:43:10.677Z,0.80
2019-03-19T19:48:15.381Z,0.64
2019-03-19T19:53:22.520Z,0.60
2019-03-19T19:58:27.242Z,0.42
2019-03-19T20:03:56.393Z,0.24
2019-03-19T20:09:06.568Z,0.22
2019-03-19T20:14:11.401Z,0.30
2019-03-19T20:19:16.012Z,0.26
2019-03-19T20:24:20.274Z,0.28
2019-03-19T20:29:25.965Z,0.32
2019-03-19T20:34:30.504Z,0.28
2019-03-19T20:39:36.136Z,0.34
2019-03-19T20:44:40.245Z,0.25
2019-03-19T20:49:47.877Z,0.09
2019-03-19T20:54:50.172Z,0.02
2019-03-19T20:59:54.704Z,-0.08
2019-03-19T21:04:58.950Z,-0.13
2019-03-19T21:15:56.460Z,-0.17
2019-03-19T21:21:20.986Z,-0.20
2019-03-19T21:26:25.321Z,-0.24
2019-03-19T21:42:24.745Z,-0.41
2019-03-19T21:53:06.371Z,-0.46
2019-03-19T21:58:17.045Z,-0.47
2019-03-19T22:03:40.720Z,-0.50
2019-03-19T22:08:55.720Z,-0.40
2019-03-19T22:25:10.786Z,-0.91
2019-03-19T22:35:53.372Z,-1.01
2019-03-19T22:40:59.152Z,-0.99
2019-03-19T22:51:19.078Z,-1.05
2019-03-19T22:56:24.841Z,-1.08
2019-03-19T23:01:49.695Z,-1.25
2019-03-19T23:06:53.772Z,-1.40
2019-03-19T23:22:50.066Z,-1.54
2019-03-19T23:27:54.529Z,-1.48
2019-03-19T23:32:58.579Z,-1.56
2019-03-19T23:38:04.649Z,-1.69
2019-03-19T23:43:08.713Z,-1.80
2019-03-19T23:48:12.777Z,-1.78
2019-03-19T23:53:16.826Z,-1.80
2019-03-19T23:58:20.895Z,-1.85
